Time;durP1;ratioP1;P1;durP2;ratioP2;P2;SDS_P1;SDS_P2;PMS_P1;PMS_P2;Temp;Humidity;BMP_temperature;BMP_pressure;BME280_temperature;BME280_humidity;BME280_pressure;Samples;Min_cycle;Max_cycle;Signal;HPM_P1;HPM_P2
2022/05/14 03:01:25;;;;;;;16.60;14.97;;;7.60;99.90;;;;;;5513355;23;20715;-75
2022/05/14 03:03:52;;;;;;;12.87;12.07;;;7.60;99.90;;;;;;4992768;28;20180;-74
2022/05/14 03:06:18;;;;;;;17.83;16.70;;;7.60;99.90;;;;;;4991623;28;20600;-75
2022/05/14 03:08:44;;;;;;;12.10;11.20;;;7.50;99.90;;;;;;4991097;28;20188;-74
2022/05/14 03:11:10;;;;;;;9.70;9.00;;;7.50;99.90;;;;;;4983473;28;20205;-74
2022/05/14 03:13:35;;;;;;;10.40;9.50;;;7.50;99.90;;;;;;4971966;28;20192;-75
2022/05/14 03:16:01;;;;;;;12.93;12.23;;;7.50;99.90;;;;;;4994031;23;20241;-75
2022/05/14 03:18:27;;;;;;;17.70;16.77;;;7.50;99.90;;;;;;4971048;28;20271;-74
2022/05/14 03:20:53;;;;;;;20.97;19.87;;;7.50;99.90;;;;;;4971963;28;20231;-74
2022/05/14 03:23:19;;;;;;;11.37;10.50;;;7.50;99.90;;;;;;4972350;28;20220;-75
2022/05/14 03:25:44;;;;;;;16.10;15.03;;;7.50;99.90;;;;;;4971882;28;20229;-75
2022/05/14 03:28:10;;;;;;;12.03;11.23;;;7.50;99.90;;;;;;4971341;28;20614;-75
2022/05/14 03:30:36;;;;;;;10.47;9.73;;;7.50;99.90;;;;;;4972930;28;20212;-74
2022/05/14 03:33:02;;;;;;;11.80;10.63;;;7.50;99.90;;;;;;4970918;28;20272;-74
2022/05/14 03:35:27;;;;;;;16.67;15.33;;;7.40;99.90;;;;;;4971477;28;20213;-74
2022/05/14 03:37:53;;;;;;;9.67;8.73;;;7.50;99.90;;;;;;4972409;28;20212;-74
2022/05/14 03:40:19;;;;;;;9.57;8.77;;;7.50;99.90;;;;;;4987804;28;20204;-74
2022/05/14 03:42:45;;;;;;;10.60;9.90;;;7.40;99.90;;;;;;4986342;28;20187;-75
2022/05/14 03:45:11;;;;;;;18.77;17.53;;;7.40;99.90;;;;;;4962049;28;20624;-74
2022/05/14 03:47:37;;;;;;;13.77;12.73;;;7.40;99.90;;;;;;4951728;28;20249;-75
2022/05/14 03:50:04;;;;;;;12.30;11.60;;;7.40;99.90;;;;;;4953655;28;20564;-74
2022/05/14 03:52:30;;;;;;;12.53;11.73;;;7.40;99.90;;;;;;4954988;28;20181;-74
2022/05/14 03:54:56;;;;;;;12.23;11.53;;;7.40;99.90;;;;;;4951886;28;20209;-74
2022/05/14 03:57:21;;;;;;;12.00;11.40;;;7.30;99.90;;;;;;4952609;28;20268;-75
2022/05/14 03:59:47;;;;;;;9.43;8.77;;;7.30;99.90;;;;;;4951908;28;20264;-74
2022/05/14 04:02:13;;;;;;;8.67;7.90;;;7.40;99.90;;;;;;4953840;28;20223;-74
2022/05/14 04:04:39;;;;;;;9.93;9.03;;;7.40;99.90;;;;;;4952793;28;20209;-74
2022/05/14 04:07:05;;;;;;;10.53;9.77;;;7.50;99.90;;;;;;4952704;28;20196;-74
2022/05/14 04:09:30;;;;;;;10.60;9.87;;;7.50;99.90;;;;;;4953482;28;20182;-75
2022/05/14 04:11:56;;;;;;;11.47;10.30;;;7.40;99.90;;;;;;4970880;28;20185;-75
2022/05/14 04:14:23;;;;;;;10.77;9.97;;;7.50;99.90;;;;;;4972811;28;20596;-74
2022/05/14 04:16:49;;;;;;;12.73;10.67;;;7.60;99.90;;;;;;4971592;28;20217;-74
2022/05/14 04:19:15;;;;;;;9.23;8.60;;;7.60;99.90;;;;;;4970728;28;20965;-75
2022/05/14 04:21:40;;;;;;;12.87;11.83;;;7.60;99.90;;;;;;4986902;28;20181;-75
2022/05/14 04:24:07;;;;;;;11.47;10.77;;;7.60;99.90;;;;;;4971856;28;20226;-75
2022/05/14 04:26:33;;;;;;;9.90;9.10;;;7.70;99.90;;;;;;4971761;28;20204;-74
2022/05/14 04:28:59;;;;;;;9.77;8.93;;;7.70;99.90;;;;;;4986546;28;20185;-75
2022/05/14 04:31:26;;;;;;;8.20;7.80;;;7.70;99.90;;;;;;4986762;28;20651;-74
2022/05/14 04:33:52;;;;;;;8.70;8.07;;;7.70;99.90;;;;;;4971705;28;20180;-74
2022/05/14 04:36:18;;;;;;;9.13;8.30;;;7.80;99.90;;;;;;4986621;28;20268;-73
2022/05/14 04:38:44;;;;;;;8.33;7.73;;;7.90;99.90;;;;;;4986313;28;20181;-74
2022/05/14 04:41:10;;;;;;;10.93;10.43;;;8.00;99.90;;;;;;4971952;28;20193;-74
2022/05/14 04:43:36;;;;;;;14.10;12.90;;;8.10;99.90;;;;;;4970729;28;20724;-75
2022/05/14 04:46:06;;;;;;;14.63;13.63;;;8.10;99.90;;;;;;4971699;28;20209;-74
2022/05/14 04:48:33;;;;;;;28.57;26.63;;;8.20;99.90;;;;;;4971485;28;20184;-73
2022/05/14 04:50:59;;;;;;;34.03;32.33;;;8.30;99.90;;;;;;4970552;28;20181;-74
2022/05/14 04:53:25;;;;;;;24.07;22.67;;;8.50;99.90;;;;;;4971623;28;20265;-74
2022/05/14 04:55:50;;;;;;;28.23;26.60;;;8.70;99.90;;;;;;4970133;28;20304;-75
2022/05/14 04:58:16;;;;;;;8.37;7.87;;;9.00;99.90;;;;;;4971295;28;20235;-74
2022/05/14 05:00:42;;;;;;;6.43;6.10;;;9.10;99.90;;;;;;4986966;28;20409;-76
2022/05/14 05:03:19;;;;;;;26.57;25.23;;;9.40;99.90;;;;;;4975403;28;20598;-76
2022/05/14 05:05:50;;;;;;;13.87;13.03;;;9.80;99.90;;;;;;4975183;28;20571;-75
2022/05/14 05:08:16;;;;;;;24.50;23.17;;;10.20;99.90;;;;;;4972409;28;20196;-76
2022/05/14 05:10:42;;;;;;;14.87;13.67;;;10.80;99.90;;;;;;4955882;28;20185;-76
2022/05/14 05:13:11;;;;;;;64.50;61.07;;;11.40;99.90;;;;;;4954596;28;20185;-76
2022/05/14 05:15:38;;;;;;;37.97;35.77;;;12.00;99.90;;;;;;4955677;28;20223;-75
2022/05/14 05:18:05;;;;;;;7.30;6.60;;;12.50;99.90;;;;;;4954148;28;20269;-76
2022/05/14 05:20:31;;;;;;;11.53;11.00;;;13.10;99.90;;;;;;4973963;28;20669;-76
2022/05/14 05:22:56;;;;;;;14.47;13.30;;;13.50;99.90;;;;;;4973735;28;20185;-76
2022/05/14 05:25:22;;;;;;;11.57;10.43;;;14.10;99.90;;;;;;4976634;28;20205;-77
2022/05/14 05:27:48;;;;;;;9.10;8.43;;;14.30;99.90;;;;;;4975365;28;20564;-77
2022/05/14 05:30:14;;;;;;;13.30;12.50;;;14.50;99.90;;;;;;4959877;28;20178;-77
2022/05/14 05:32:40;;;;;;;11.77;10.87;;;14.60;99.90;;;;;;4958461;28;20185;-77
2022/05/14 05:35:07;;;;;;;9.43;8.53;;;14.90;99.90;;;;;;4960093;28;20209;-77
2022/05/14 05:37:33;;;;;;;6.43;6.00;;;15.20;99.90;;;;;;4959733;28;20212;-77
2022/05/14 05:39:58;;;;;;;6.93;6.27;;;15.80;99.90;;;;;;4972629;28;20649;-78
2022/05/14 05:42:24;;;;;;;7.00;5.67;;;16.20;99.90;;;;;;4996905;28;20177;-77
2022/05/14 05:44:50;;;;;;;7.73;7.13;;;16.40;99.90;;;;;;4979526;28;20200;-77
2022/05/14 05:47:16;;;;;;;9.90;9.20;;;16.90;99.90;;;;;;4992946;28;20200;-77
2022/05/14 05:49:42;;;;;;;16.50;15.50;;;17.10;99.90;;;;;;4983225;28;20185;-78
2022/05/14 05:52:11;;;;;;;20.97;19.73;;;17.50;99.90;;;;;;4976893;28;20294;-77
2022/05/14 05:57:30;;;;;;;11.57;10.53;;;17.90;99.90;;;;;;4981955;28;20199;-75
2022/05/14 05:59:55;;;;;;;7.53;7.13;;;17.80;99.90;;;;;;4962155;28;20189;-75
2022/05/14 06:02:21;;;;;;;8.23;7.47;;;18.20;99.90;;;;;;4955672;28;20246;-81
2022/05/14 06:04:47;;;;;;;8.67;8.13;;;18.20;99.90;;;;;;4959912;28;20209;-78
2022/05/14 06:07:13;;;;;;;6.57;6.10;;;18.60;99.90;;;;;;4958563;29;20189;-78
2022/05/14 06:09:39;;;;;;;6.43;6.03;;;18.80;99.90;;;;;;4968273;28;20188;-78
2022/05/14 06:12:06;;;;;;;5.33;4.67;;;19.20;99.90;;;;;;4980695;28;20181;-78
2022/05/14 06:14:32;;;;;;;4.83;4.53;;;19.60;99.90;;;;;;4980458;28;20244;-79
2022/05/14 06:16:58;;;;;;;5.93;5.37;;;19.20;99.90;;;;;;4997072;28;20224;-79
2022/05/14 06:19:24;;;;;;;6.70;5.90;;;19.60;99.90;;;;;;4976099;28;20182;-80
2022/05/14 06:21:49;;;;;;;6.05;5.65;;;20.10;99.90;;;;;;4961342;28;20184;-79
2022/05/14 06:24:15;;;;;;;5.53;5.10;;;20.40;99.90;;;;;;4960302;29;20186;-78
2022/05/14 06:26:42;;;;;;;5.28;4.95;;;20.40;99.90;;;;;;4958939;28;20196;-78
2022/05/14 06:29:08;;;;;;;7.07;6.32;;;20.60;99.90;;;;;;4962662;28;20538;-79
2022/05/14 06:31:34;;;;;;;5.47;5.10;;;20.40;99.90;;;;;;4954106;28;20190;-79
2022/05/14 06:34:00;;;;;;;7.60;7.05;;;20.40;99.90;;;;;;4961823;29;20193;-78
2022/05/14 06:36:26;;;;;;;8.13;7.63;;;20.50;99.90;;;;;;4957216;29;20276;-69
2022/05/14 06:38:52;;;;;;;7.60;7.00;;;20.30;99.90;;;;;;4957488;28;20232;-70
2022/05/14 06:41:18;;;;;;;7.33;5.37;;;20.20;99.90;;;;;;4988792;28;20184;-69
2022/05/14 06:43:44;;;;;;;9.37;5.20;;;19.90;99.90;;;;;;4973592;28;20181;-69
2022/05/14 06:46:10;;;;;;;6.20;5.60;;;19.60;99.90;;;;;;4988319;28;20603;-69
2022/05/14 06:48:37;;;;;;;7.63;5.33;;;19.60;99.90;;;;;;4972139;28;20189;-69
2022/05/14 06:51:08;;;;;;;5.13;4.77;;;19.70;99.90;;;;;;4952744;28;20217;-69
2022/05/14 06:53:39;;;;;;;11.03;6.13;;;20.10;99.90;;;;;;4953962;29;20221;-69
2022/05/14 06:56:07;;;;;;;11.43;5.97;;;19.90;99.90;;;;;;4954020;28;20217;-69
2022/05/14 06:58:36;;;;;;;4.90;4.50;;;19.90;99.90;;;;;;4953191;28;20272;-69
2022/05/14 07:01:02;;;;;;;5.57;5.07;;;20.40;99.90;;;;;;4957708;28;20178;-70
2022/05/14 07:09:27;;;;;;;4.78;4.43;;;21.00;99.90;;;;;;4923394;29;20198;-81
2022/05/14 07:11:56;;;;;;;10.02;9.18;;;21.60;99.90;;;;;;4903117;29;20188;-81
2022/05/14 07:14:23;;;;;;;6.18;5.63;;;22.00;99.90;;;;;;4925344;29;20273;-80
2022/05/14 07:16:50;;;;;;;12.48;11.15;;;22.60;99.90;;;;;;4946120;29;20217;-81
2022/05/14 07:19:16;;;;;;;9.70;8.32;;;22.80;99.00;;;;;;4954840;28;20169;-75
2022/05/14 07:21:45;;;;;;;8.38;7.75;;;23.30;97.50;;;;;;4997978;28;20181;-80
2022/05/14 07:24:16;;;;;;;8.85;8.02;;;23.50;97.00;;;;;;4996734;28;20228;-81
2022/05/14 07:26:43;;;;;;;10.00;9.18;;;23.40;96.10;;;;;;4997499;28;20306;-81
2022/05/14 07:29:13;;;;;;;10.45;9.57;;;23.50;96.00;;;;;;4992254;28;20177;-81
2022/05/14 07:31:39;;;;;;;9.70;8.85;;;23.80;95.00;;;;;;4961856;29;20233;-81
2022/05/14 07:34:06;;;;;;;10.32;9.65;;;23.70;93.50;;;;;;4961096;29;20181;-79
2022/05/14 07:36:42;;;;;;;12.80;12.00;;;23.60;93.60;;;;;;4962005;28;20624;-81
2022/05/14 07:39:08;;;;;;;12.57;11.73;;;23.90;91.90;;;;;;4962470;28;20178;-79
2022/05/14 07:41:39;;;;;;;9.18;8.48;;;23.80;92.50;;;;;;4962264;28;20561;-79
2022/05/14 07:44:08;;;;;;;9.10;8.57;;;24.20;91.10;;;;;;4977738;28;20195;-80
2022/05/14 07:46:36;;;;;;;9.25;8.63;;;24.20;92.70;;;;;;4997229;28;20221;-79
2022/05/14 07:49:06;;;;;;;11.50;9.55;;;24.30;91.30;;;;;;4979720;28;20660;-80
2022/05/14 07:51:32;;;;;;;6.15;5.50;;;24.30;90.40;;;;;;4968966;28;20185;-80
2022/05/14 07:53:58;;;;;;;5.65;5.15;;;24.40;86.20;;;;;;4982992;28;20184;-79
2022/05/14 07:56:23;;;;;;;9.25;8.52;;;24.40;83.10;;;;;;5001200;28;20655;-80
2022/05/14 07:58:49;;;;;;;11.90;11.10;;;24.80;79.20;;;;;;4981960;28;20211;-79
2022/05/14 08:01:15;;;;;;;9.90;9.20;;;24.80;76.40;;;;;;4964635;28;20192;-80
2022/05/14 08:03:41;;;;;;;9.07;8.40;;;24.50;75.80;;;;;;4961638;28;20204;-79
2022/05/14 08:06:09;;;;;;;10.52;9.63;;;24.30;77.00;;;;;;4963168;28;20210;-80
2022/05/14 08:08:36;;;;;;;11.23;10.38;;;24.50;74.10;;;;;;4961668;29;20261;-81
2022/05/14 08:11:02;;;;;;;12.38;11.73;;;24.70;72.50;;;;;;4988250;28;20248;-80
2022/05/14 08:13:32;;;;;;;7.15;6.53;;;24.90;73.70;;;;;;4988936;28;20185;-80
2022/05/14 08:15:58;;;;;;;12.35;11.65;;;25.20;72.50;;;;;;4985292;28;20311;-80
2022/05/14 08:18:24;;;;;;;12.65;11.90;;;25.40;76.20;;;;;;4988053;28;20193;-80
2022/05/14 08:20:52;;;;;;;13.88;12.98;;;25.50;74.00;;;;;;4967713;28;20182;-80
2022/05/14 08:26:04;;;;;;;6.90;6.30;;;25.40;75.90;;;;;;4965870;29;20205;-80
2022/05/14 08:28:30;;;;;;;8.23;7.40;;;25.90;73.20;;;;;;4965005;28;20182;-80
2022/05/14 08:30:57;;;;;;;9.48;8.90;;;25.60;72.60;;;;;;4980472;28;20196;-80
2022/05/14 08:33:23;;;;;;;9.18;8.15;;;25.70;74.40;;;;;;4998291;28;20231;-79
2022/05/14 08:35:49;;;;;;;10.90;9.95;;;26.00;73.30;;;;;;4999725;28;20239;-79
2022/05/14 08:38:17;;;;;;;11.15;10.48;;;26.30;73.10;;;;;;4986400;28;20177;-81
2022/05/14 08:40:48;;;;;;;11.43;10.63;;;26.40;72.70;;;;;;4971654;28;20169;-78
2022/05/14 08:43:31;;;;;;;12.50;11.70;;;25.80;72.80;;;;;;4980640;28;20661;-79
2022/05/14 08:45:57;;;;;;;14.77;13.55;;;25.30;72.10;;;;;;4977367;28;20739;-79
2022/05/14 08:48:33;;;;;;;11.40;10.50;;;25.20;69.80;;;;;;4974444;28;20176;-79
2022/05/14 08:51:14;;;;;;;6.20;5.72;;;25.30;72.10;;;;;;4996513;28;20185;-81
2022/05/14 08:53:42;;;;;;;11.93;11.07;;;25.70;71.60;;;;;;5003286;28;20208;-81
2022/05/14 08:56:20;;;;;;;6.45;6.00;;;25.80;70.20;;;;;;4988568;28;20216;-81
2022/05/14 08:59:04;;;;;;;9.48;8.80;;;26.50;73.00;;;;;;5002772;28;20209;-79
2022/05/14 09:01:35;;;;;;;12.55;11.65;;;26.50;69.80;;;;;;4947159;29;20636;-80
2022/05/14 09:04:01;;;;;;;9.20;8.43;;;26.10;68.00;;;;;;4947389;29;20193;-79
2022/05/14 09:06:27;;;;;;;10.73;9.82;;;25.80;70.60;;;;;;4948329;29;20210;-79
2022/05/14 09:08:52;;;;;;;12.32;5.28;;;25.80;70.00;;;;;;4948395;28;20194;-79
2022/05/14 09:11:26;;;;;;;11.77;10.85;;;26.00;71.80;;;;;;4987783;28;20679;-79
2022/05/14 09:13:55;;;;;;;7.35;6.88;;;26.20;66.30;;;;;;4986840;28;20185;-80
2022/05/14 09:16:31;;;;;;;9.13;8.55;;;26.30;67.60;;;;;;4989809;23;20287;-76
2022/05/14 09:18:58;;;;;;;11.15;10.38;;;26.80;63.20;;;;;;4956981;28;20181;-76
2022/05/14 09:21:28;;;;;;;11.65;10.95;;;26.80;65.30;;;;;;4957242;28;20189;-76
2022/05/14 09:24:03;;;;;;;10.40;9.52;;;26.90;63.50;;;;;;4957534;28;20689;-75
2022/05/14 09:26:40;;;;;;;7.97;7.22;;;27.30;62.40;;;;;;4941899;28;20206;-76
2022/05/14 09:29:23;;;;;;;10.02;9.40;;;27.70;59.60;;;;;;4936566;29;20541;-75
2022/05/14 09:31:59;;;;;;;10.07;9.25;;;27.30;62.00;;;;;;4922152;29;20214;-75
2022/05/14 09:34:26;;;;;;;12.70;11.80;;;27.20;61.90;;;;;;4921928;29;20190;-76
2022/05/14 09:36:52;;;;;;;10.95;10.25;;;26.70;62.00;;;;;;4932267;29;20217;-75
2022/05/14 09:39:21;;;;;;;9.15;8.60;;;26.70;61.60;;;;;;4937919;29;20183;-76
2022/05/14 09:41:56;;;;;;;9.55;8.98;;;26.80;61.60;;;;;;4933525;29;20644;-75
2022/05/14 09:44:46;;;;;;;16.75;15.63;;;26.90;61.40;;;;;;4919077;29;20278;-76
2022/05/14 09:47:15;;;;;;;14.18;13.27;;;25.60;62.60;;;;;;4918318;29;20214;-77
2022/05/14 09:49:52;;;;;;;14.05;13.15;;;25.40;61.40;;;;;;4920868;29;20196;-76
2022/05/14 09:52:24;;;;;;;15.45;14.52;;;25.40;61.00;;;;;;4938912;28;20721;-75
2022/05/14 09:54:51;;;;;;;14.02;13.23;;;25.40;63.90;;;;;;4937220;29;20194;-74
2022/05/14 09:57:39;;;;;;;14.38;13.23;;;25.70;62.70;;;;;;4936912;29;20582;-75
2022/05/14 10:00:21;;;;;;;9.00;8.45;;;26.10;62.10;;;;;;4937937;29;20281;-77
2022/05/14 10:03:16;;;;;;;13.10;11.95;;;25.90;59.60;;;;;;4937813;29;20254;-75
2022/05/14 10:05:50;;;;;;;12.88;12.18;;;26.40;60.50;;;;;;4937199;29;20640;-78
2022/05/14 10:08:52;;;;;;;15.68;14.77;;;26.00;62.00;;;;;;4938828;29;20199;-76
2022/05/14 10:11:24;;;;;;;17.10;16.13;;;25.60;63.50;;;;;;4937966;29;20197;-76
2022/05/14 10:14:20;;;;;;;15.50;14.45;;;25.30;63.90;;;;;;4936886;29;20190;-76
2022/05/14 10:17:13;;;;;;;13.32;12.55;;;26.00;63.60;;;;;;4935953;29;20370;-76
2022/05/14 10:20:10;;;;;;;13.18;12.38;;;26.30;62.00;;;;;;4936180;29;20242;-76
2022/05/14 10:29:06;;;;;;;7.30;6.70;;;27.60;58.00;;;;;;4937145;29;20195;-77
2022/05/14 10:31:56;;;;;;;6.50;5.72;;;28.40;58.00;;;;;;4936881;29;20182;-76
2022/05/14 10:34:43;;;;;;;6.50;5.65;;;27.90;57.40;;;;;;4937608;29;20281;-76
2022/05/14 10:37:21;;;;;;;4.75;4.43;;;27.60;58.30;;;;;;4937599;29;20256;-76
2022/05/14 10:40:10;;;;;;;7.90;7.30;;;27.40;58.50;;;;;;4938076;29;20564;-76
2022/05/14 10:42:53;;;;;;;5.35;3.38;;;27.60;55.40;;;;;;4918975;29;20187;-77
2022/05/14 10:45:20;;;;;;;5.05;4.53;;;28.00;55.90;;;;;;4918269;29;20258;-76
2022/05/14 10:47:57;;;;;;;4.25;3.88;;;28.50;55.90;;;;;;4917698;29;20605;-76
2022/05/14 10:50:23;;;;;;;4.80;4.40;;;28.20;56.70;;;;;;4923142;29;20186;-76
2022/05/14 10:52:52;;;;;;;7.50;5.50;;;27.70;57.50;;;;;;4935872;29;20181;-77
2022/05/14 10:55:30;;;;;;;9.80;9.05;;;28.20;57.10;;;;;;4935727;29;20206;-76
2022/05/14 10:58:01;;;;;;;8.52;7.70;;;28.40;55.30;;;;;;4936638;28;20217;-76
2022/05/14 11:00:30;;;;;;;5.18;4.85;;;28.30;55.20;;;;;;4934953;29;20189;-76
2022/05/14 11:02:59;;;;;;;7.22;6.38;;;27.90;56.80;;;;;;4935813;29;20261;-76
2022/05/14 11:05:32;;;;;;;8.48;7.95;;;28.20;55.50;;;;;;4936789;29;20207;-76
2022/05/14 11:08:13;;;;;;;9.77;9.23;;;28.00;54.40;;;;;;4935027;29;20190;-76
2022/05/14 11:10:40;;;;;;;6.55;5.82;;;26.80;56.20;;;;;;4936149;29;20627;-76
2022/05/14 11:13:32;;;;;;;7.63;7.03;;;27.10;55.60;;;;;;4943785;29;20186;-75
2022/05/14 11:16:10;;;;;;;5.93;5.53;;;27.70;57.50;;;;;;4933085;29;20233;-75
2022/05/14 11:19:04;;;;;;;12.68;11.68;;;28.40;56.20;;;;;;4934790;29;20186;-76
2022/05/14 11:21:38;;;;;;;7.80;7.35;;;28.60;55.00;;;;;;4934267;29;20520;-76
2022/05/14 11:24:04;;;;;;;9.48;8.88;;;29.10;55.40;;;;;;4937449;29;20189;-76
2022/05/14 11:26:30;;;;;;;6.40;5.80;;;29.30;53.50;;;;;;4936108;29;20586;-77
2022/05/14 11:28:59;;;;;;;6.63;6.05;;;28.90;53.10;;;;;;4935489;29;20190;-76
2022/05/14 11:31:38;;;;;;;5.72;4.85;;;29.10;53.30;;;;;;4935782;29;20183;-76
2022/05/14 11:34:19;;;;;;;4.68;4.38;;;29.50;52.80;;;;;;4936939;29;20237;-77
2022/05/14 11:36:54;;;;;;;4.93;4.38;;;29.60;50.70;;;;;;4936369;29;20670;-75
2022/05/14 11:39:20;;;;;;;4.85;4.53;;;28.30;52.50;;;;;;4935897;29;20190;-77
2022/05/14 11:41:47;;;;;;;8.38;6.03;;;27.70;54.30;;;;;;4936358;29;20180;-75
2022/05/14 11:44:23;;;;;;;10.68;9.77;;;28.10;53.10;;;;;;4936450;29;20237;-76
2022/05/14 11:46:49;;;;;;;4.47;3.53;;;29.10;54.10;;;;;;4934954;29;20209;-76
2022/05/14 11:49:34;;;;;;;3.80;3.47;;;29.20;50.90;;;;;;4936246;29;20577;-75
2022/05/14 11:52:24;;;;;;;4.10;3.55;;;30.00;51.90;;;;;;4935640;29;20186;-76
2022/05/14 11:54:53;;;;;;;5.63;4.50;;;29.10;51.60;;;;;;4935883;29;20185;-76
2022/05/14 11:57:28;;;;;;;4.88;4.45;;;30.60;51.80;;;;;;4935981;29;20330;-77
2022/05/14 12:00:12;;;;;;;7.80;7.20;;;31.10;49.60;;;;;;4936093;29;20264;-76
2022/05/14 12:02:47;;;;;;;7.63;7.13;;;30.60;48.50;;;;;;4935978;29;20182;-76
2022/05/14 12:05:23;;;;;;;9.13;8.40;;;30.60;50.30;;;;;;4935822;29;21041;-76
2022/05/14 12:07:58;;;;;;;13.02;12.23;;;31.50;49.80;;;;;;4935658;29;20210;-76
2022/05/14 12:10:29;;;;;;;4.75;3.50;;;32.20;47.70;;;;;;4935397;29;20185;-77
2022/05/14 12:13:10;;;;;;;5.45;4.28;;;31.70;45.40;;;;;;4935712;29;20666;-77
2022/05/14 12:15:47;;;;;;;3.40;2.90;;;31.60;46.50;;;;;;4935171;28;20214;-77
2022/05/14 12:18:14;;;;;;;4.28;2.78;;;32.20;44.80;;;;;;4934051;29;20245;-77
2022/05/14 12:20:43;;;;;;;4.88;3.65;;;32.10;43.50;;;;;;4935145;29;20182;-77
2022/05/14 12:23:17;;;;;;;2.70;2.58;;;32.50;44.60;;;;;;4935843;29;20186;-75
2022/05/14 12:25:45;;;;;;;2.90;2.53;;;31.40;45.80;;;;;;4935337;29;20210;-75
2022/05/14 12:28:31;;;;;;;4.88;3.40;;;30.90;46.00;;;;;;4935176;29;20209;-75
2022/05/14 12:34:02;;;;;;;2.83;2.60;;;30.10;46.00;;;;;;4934927;29;20197;-76
2022/05/14 12:36:33;;;;;;;3.53;2.38;;;31.60;44.70;;;;;;4935595;29;20210;-76
2022/05/14 12:39:03;;;;;;;2.88;2.67;;;31.40;44.10;;;;;;4935207;29;20182;-76
2022/05/14 12:41:31;;;;;;;2.38;2.10;;;31.90;42.50;;;;;;4936116;28;20182;-75
2022/05/14 12:44:05;;;;;;;3.05;2.78;;;32.90;42.50;;;;;;4935893;28;20551;-77
2022/05/14 12:46:31;;;;;;;3.25;3.05;;;33.30;39.30;;;;;;4934524;29;20579;-77
2022/05/14 12:48:57;;;;;;;6.75;2.97;;;33.70;39.60;;;;;;4935370;29;20186;-76
2022/05/14 12:51:25;;;;;;;3.45;2.80;;;34.20;38.80;;;;;;4935971;29;20269;-74
2022/05/14 12:53:55;;;;;;;3.22;2.92;;;33.50;39.10;;;;;;4941499;29;20242;-76
2022/05/14 12:56:26;;;;;;;2.95;2.75;;;33.70;37.40;;;;;;4944195;29;20273;-77
2022/05/14 12:58:52;;;;;;;4.57;4.25;;;33.60;38.10;;;;;;4936186;29;20241;-77
2022/05/14 13:01:19;;;;;;;5.80;5.50;;;32.40;39.60;;;;;;4935018;29;20675;-77
2022/05/14 13:03:59;;;;;;;6.47;6.07;;;31.60;39.10;;;;;;4935683;29;20182;-75
2022/05/14 13:06:34;;;;;;;4.80;4.32;;;31.70;40.20;;;;;;4935032;29;20698;-76
2022/05/14 13:09:07;;;;;;;2.83;2.63;;;30.80;40.90;;;;;;4934858;29;20693;-76
2022/05/14 13:11:36;;;;;;;3.95;3.38;;;31.20;40.00;;;;;;4935193;29;20194;-75
2022/05/14 13:14:23;;;;;;;7.82;4.40;;;32.00;39.70;;;;;;4933751;29;20651;-75
2022/05/14 13:17:04;;;;;;;4.95;3.55;;;32.30;38.40;;;;;;4934260;28;20593;-76
2022/05/14 13:19:41;;;;;;;5.07;4.35;;;32.50;38.60;;;;;;4934195;29;20237;-76
2022/05/14 13:22:25;;;;;;;5.88;5.50;;;31.90;37.10;;;;;;4935692;29;20241;-76
2022/05/14 13:24:54;;;;;;;5.10;4.78;;;32.00;38.10;;;;;;4937181;29;20190;-76
2022/05/14 13:27:32;;;;;;;3.70;3.42;;;31.90;37.20;;;;;;4936570;29;20739;-76
2022/05/14 13:30:22;;;;;;;3.65;3.45;;;32.30;36.50;;;;;;4938520;29;20197;-75
2022/05/14 13:32:48;;;;;;;3.55;3.40;;;32.70;36.40;;;;;;4918992;29;20189;-76
2022/05/14 13:38:07;;;;;;;3.00;2.70;;;33.90;35.20;;;;;;4918898;29;20239;-76
2022/05/14 13:40:43;;;;;;;3.70;3.50;;;33.70;34.80;;;;;;4923010;29;20171;-76
2022/05/14 13:43:14;;;;;;;4.75;3.22;;;33.90;33.20;;;;;;4936793;29;20193;-75
2022/05/14 13:45:57;;;;;;;5.45;5.15;;;34.30;31.30;;;;;;4938323;29;20623;-76
2022/05/14 13:48:41;;;;;;;5.20;5.00;;;34.70;31.90;;;;;;4936867;29;20595;-76
2022/05/14 13:51:28;;;;;;;3.53;3.33;;;35.30;32.20;;;;;;4937310;29;20681;-76
2022/05/14 13:54:16;;;;;;;9.68;9.18;;;34.00;31.70;;;;;;4938153;29;20217;-75
2022/05/14 13:56:45;;;;;;;3.80;3.60;;;33.60;33.20;;;;;;4936277;29;20222;-76
2022/05/14 13:59:33;;;;;;;6.63;6.22;;;33.40;34.30;;;;;;4936724;29;20189;-75
2022/05/14 14:02:22;;;;;;;3.53;3.38;;;32.20;35.10;;;;;;4938295;29;20193;-76
2022/05/14 14:04:56;;;;;;;3.47;3.28;;;32.10;36.10;;;;;;4938577;29;20187;-76
2022/05/14 14:07:22;;;;;;;2.90;2.70;;;32.20;35.60;;;;;;4938032;28;20190;-76
2022/05/14 14:09:48;;;;;;;4.80;4.47;;;32.40;35.50;;;;;;4936177;29;20189;-76
2022/05/14 14:12:14;;;;;;;4.75;4.35;;;32.90;35.10;;;;;;4935568;29;20186;-76
2022/05/14 14:14:41;;;;;;;5.35;4.50;;;32.60;34.70;;;;;;4937406;29;20175;-76
2022/05/14 14:17:07;;;;;;;3.97;3.72;;;32.40;35.60;;;;;;4935668;29;20690;-75
2022/05/14 14:19:33;;;;;;;3.22;2.85;;;31.70;35.90;;;;;;4937442;29;20225;-76
2022/05/14 14:22:04;;;;;;;3.22;2.83;;;31.60;35.20;;;;;;4937092;29;20602;-76
2022/05/14 14:24:32;;;;;;;5.45;5.18;;;31.60;35.30;;;;;;4938110;29;20190;-76
2022/05/14 14:26:59;;;;;;;3.40;2.70;;;31.80;35.20;;;;;;4937494;29;20183;-76
2022/05/14 14:29:26;;;;;;;16.58;5.40;;;32.80;33.90;;;;;;4937193;29;20195;-76
2022/05/14 14:31:52;;;;;;;6.18;5.95;;;33.70;34.50;;;;;;4937634;29;20186;-75
2022/05/14 14:34:18;;;;;;;4.85;4.65;;;34.40;32.30;;;;;;4940161;29;20274;-75
2022/05/14 14:36:44;;;;;;;12.52;11.90;;;35.00;32.30;;;;;;4935747;29;20305;-76
2022/05/14 14:39:10;;;;;;;6.22;5.85;;;35.00;31.70;;;;;;4937672;29;20265;-76
2022/05/14 14:41:36;;;;;;;4.72;4.35;;;35.20;30.20;;;;;;4935653;29;20643;-76
2022/05/14 14:44:03;;;;;;;5.30;4.90;;;35.30;31.20;;;;;;4936976;29;20257;-76
2022/05/14 14:46:30;;;;;;;12.18;11.48;;;34.80;31.30;;;;;;4936714;29;20213;-76
2022/05/14 14:48:57;;;;;;;5.80;5.40;;;33.90;30.80;;;;;;4936591;29;20187;-76
2022/05/14 14:51:24;;;;;;;10.65;10.10;;;33.10;31.90;;;;;;4936618;29;20714;-76
2022/05/14 14:53:50;;;;;;;13.93;13.05;;;33.20;32.50;;;;;;4935383;29;20190;-76
2022/05/14 14:56:16;;;;;;;11.05;10.55;;;32.90;33.30;;;;;;4936620;29;20218;-76
2022/05/14 14:58:44;;;;;;;6.53;6.13;;;34.10;30.70;;;;;;4934624;29;20640;-76
2022/05/14 15:01:20;;;;;;;4.20;3.90;;;34.70;30.50;;;;;;4935891;29;20205;-76
2022/05/14 15:03:52;;;;;;;3.30;3.10;;;34.70;29.70;;;;;;4936823;29;20186;-76
2022/05/14 15:06:19;;;;;;;3.17;2.78;;;36.00;28.50;;;;;;4936371;29;20305;-76
2022/05/14 15:08:49;;;;;;;3.30;2.80;;;36.00;28.90;;;;;;4934942;29;20378;-77
2022/05/14 15:11:19;;;;;;;4.85;3.03;;;35.60;29.70;;;;;;4932836;29;20205;-76
2022/05/14 15:13:52;;;;;;;3.85;3.65;;;35.70;29.10;;;;;;4918631;29;20278;-76
2022/05/14 15:16:18;;;;;;;4.97;4.57;;;35.80;28.80;;;;;;4969062;23;20255;-79
2022/05/14 15:18:44;;;;;;;4.95;4.65;;;35.90;29.50;;;;;;4980846;28;20181;-81
2022/05/14 15:21:10;;;;;;;5.55;5.25;;;35.00;29.00;;;;;;4977337;28;20604;-80
2022/05/14 15:23:37;;;;;;;11.27;10.70;;;33.40;31.20;;;;;;4982129;28;20173;-80
2022/05/14 15:26:03;;;;;;;8.98;8.45;;;33.10;32.10;;;;;;4970027;28;20222;-81
2022/05/14 15:28:30;;;;;;;9.38;8.82;;;32.50;32.30;;;;;;4958575;29;20209;-81
2022/05/14 15:30:57;;;;;;;9.75;9.25;;;32.10;32.00;;;;;;4959986;28;20741;-81
2022/05/14 15:33:23;;;;;;;7.75;7.25;;;32.10;32.10;;;;;;4958773;29;20174;-80
2022/05/14 15:35:50;;;;;;;10.48;9.90;;;32.60;31.00;;;;;;4965832;28;20206;-79
2022/05/14 15:38:16;;;;;;;11.10;10.10;;;32.80;31.50;;;;;;4965064;29;20240;-80
2022/05/14 15:40:47;;;;;;;8.88;8.32;;;33.10;30.00;;;;;;4960482;28;20186;-80
2022/05/14 15:43:19;;;;;;;9.85;9.23;;;32.60;31.50;;;;;;4959054;28;20186;-80
2022/05/14 15:45:54;;;;;;;10.02;9.50;;;32.20;31.50;;;;;;4962196;28;20632;-81
2022/05/14 15:48:24;;;;;;;3.60;3.33;;;31.90;31.90;;;;;;4962287;29;20197;-81
2022/05/14 15:50:51;;;;;;;6.15;3.30;;;31.60;32.70;;;;;;4959966;28;20218;-80
2022/05/14 15:53:25;;;;;;;4.55;4.10;;;31.50;32.30;;;;;;4963191;28;20630;-80
2022/05/14 15:55:55;;;;;;;5.30;4.72;;;32.00;32.20;;;;;;4961190;28;20688;-81
2022/05/14 15:58:21;;;;;;;4.75;3.67;;;32.10;31.80;;;;;;4958847;28;20586;-80
2022/05/14 16:00:48;;;;;;;3.75;3.55;;;32.10;31.40;;;;;;4958483;28;20174;-80
2022/05/14 16:03:14;;;;;;;3.53;3.33;;;31.80;32.30;;;;;;4958553;29;20461;-79
2022/05/14 16:05:39;;;;;;;5.32;4.82;;;31.60;32.70;;;;;;4956951;28;20244;-80
2022/05/14 16:08:06;;;;;;;5.50;5.20;;;31.60;32.80;;;;;;4957587;28;20185;-80
2022/05/14 16:16:05;;;;;;;7.45;7.15;;;31.60;32.20;;;;;;4959740;28;20224;-80
2022/05/14 16:18:36;;;;;;;11.15;10.40;;;32.60;30.50;;;;;;4958796;28;20222;-80
2022/05/14 16:21:02;;;;;;;6.57;6.28;;;32.80;29.20;;;;;;4962829;28;20261;-81
2022/05/14 16:23:28;;;;;;;7.03;6.32;;;32.60;29.30;;;;;;4975160;28;20205;-80
2022/05/14 16:25:59;;;;;;;9.95;9.35;;;32.40;29.50;;;;;;4973414;28;20225;-81
2022/05/14 16:28:26;;;;;;;9.23;7.78;;;32.60;30.30;;;;;;4968708;28;20241;-81